createdAt,value
2023-05-12T00:00:59.516Z,5.28
2023-05-12T00:03:26.656Z,7.10
2023-05-12T00:05:54.074Z,4.32
2023-05-12T00:08:21.011Z,6.05
2023-05-12T00:10:47.866Z,4.70
2023-05-12T00:13:14.949Z,4.95
2023-05-12T00:15:41.861Z,4.78
2023-05-12T00:18:08.747Z,6.55
2023-05-12T00:20:35.728Z,5.35
2023-05-12T00:23:02.845Z,4.60
2023-05-12T00:25:29.885Z,4.38
2023-05-12T00:27:57.068Z,4.53
2023-05-12T00:30:23.863Z,4.53
2023-05-12T00:32:51.111Z,4.70
2023-05-12T00:35:18.136Z,5.18
2023-05-12T00:37:45.138Z,4.32
2023-05-12T00:40:12.485Z,4.80
2023-05-12T00:42:39.363Z,4.38
2023-05-12T00:45:07.608Z,3.72
2023-05-12T00:47:36.031Z,4.20
2023-05-12T00:50:04.048Z,4.38
2023-05-12T00:52:31.506Z,4.32
2023-05-12T00:55:00.463Z,3.80
2023-05-12T00:57:30.067Z,3.88
2023-05-12T00:59:57.128Z,4.03
2023-05-12T01:02:24.100Z,3.90
2023-05-12T01:04:51.630Z,3.67
2023-05-12T01:07:22.358Z,4.20
2023-05-12T01:09:53.793Z,3.80
2023-05-12T01:12:21.566Z,4.00
2023-05-12T01:14:49.477Z,3.90
2023-05-12T01:17:21.218Z,4.90
2023-05-12T01:19:51.990Z,4.22
2023-05-12T01:22:19.219Z,3.90
2023-05-12T01:24:59.125Z,3.60
2023-05-12T01:27:27.507Z,3.80
2023-05-12T01:29:57.932Z,4.35
2023-05-12T01:32:25.210Z,3.95
2023-05-12T01:34:52.328Z,4.93
2023-05-12T01:37:19.432Z,3.60
2023-05-12T01:39:46.269Z,3.83
2023-05-12T01:42:13.278Z,3.30
2023-05-12T01:44:40.500Z,3.55
2023-05-12T01:47:10.028Z,3.90
2023-05-12T01:49:37.479Z,3.80
2023-05-12T01:52:04.738Z,3.97
2023-05-12T01:54:31.570Z,4.88
2023-05-12T01:56:58.424Z,3.60
2023-05-12T01:59:25.359Z,3.33
2023-05-12T02:01:52.513Z,3.63
2023-05-12T02:04:19.406Z,3.60
2023-05-12T02:06:46.364Z,3.53
2023-05-12T02:09:13.603Z,2.97
2023-05-12T02:11:40.445Z,3.33
2023-05-12T02:14:07.555Z,3.38
2023-05-12T02:16:34.419Z,3.80
2023-05-12T02:19:01.517Z,3.28
2023-05-12T02:21:28.379Z,3.25
2023-05-12T02:23:56.441Z,3.08
2023-05-12T02:26:23.356Z,3.08
2023-05-12T02:28:50.302Z,2.80
2023-05-12T02:31:17.528Z,3.15
2023-05-12T02:33:44.417Z,4.43
2023-05-12T02:36:11.281Z,3.22
2023-05-12T02:38:39.992Z,3.97
2023-05-12T02:41:08.037Z,3.50
2023-05-12T02:43:34.846Z,3.35
2023-05-12T02:46:04.193Z,3.50
2023-05-12T02:48:32.057Z,3.28
2023-05-12T02:50:59.376Z,4.18
2023-05-12T02:53:27.890Z,3.45
2023-05-12T02:55:54.736Z,3.72
2023-05-12T02:58:23.019Z,3.78
2023-05-12T03:00:59.847Z,3.72
2023-05-12T03:03:33.976Z,3.95
2023-05-12T03:06:00.904Z,4.75
2023-05-12T03:08:27.997Z,6.88
2023-05-12T03:10:55.044Z,3.85
2023-05-12T03:13:22.359Z,5.57
2023-05-12T03:15:49.237Z,4.95
2023-05-12T03:18:16.027Z,5.65
2023-05-12T03:20:42.922Z,4.65
2023-05-12T03:23:09.715Z,4.93
2023-05-12T03:25:36.890Z,8.00
2023-05-12T03:28:05.506Z,5.53
2023-05-12T03:30:33.304Z,6.32
2023-05-12T03:33:00.230Z,6.45
2023-05-12T03:35:27.148Z,6.40
2023-05-12T03:37:54.328Z,7.45
2023-05-12T03:40:21.703Z,7.45
2023-05-12T03:42:48.812Z,7.22
2023-05-12T03:45:15.812Z,8.68
2023-05-12T03:47:43.173Z,7.60
2023-05-12T03:50:10.329Z,8.18
2023-05-12T03:52:38.602Z,8.93
2023-05-12T03:55:07.096Z,8.35
2023-05-12T03:57:36.481Z,9.60
2023-05-12T04:00:07.341Z,9.52
2023-05-12T04:02:34.226Z,9.10
2023-05-12T04:05:01.218Z,9.27
2023-05-12T04:07:28.530Z,9.30
2023-05-12T04:09:55.853Z,9.32
2023-05-12T04:12:23.876Z,9.50
2023-05-12T04:14:51.141Z,10.18
2023-05-12T04:17:19.366Z,11.25
2023-05-12T04:19:46.790Z,10.38
2023-05-12T04:22:13.563Z,9.75
2023-05-12T04:24:40.472Z,9.48
2023-05-12T04:27:07.495Z,10.40
2023-05-12T04:29:34.247Z,9.77
2023-05-12T04:32:01.147Z,11.50
2023-05-12T04:34:28.078Z,11.40
2023-05-12T04:36:54.891Z,10.80
2023-05-12T04:39:21.687Z,11.18
2023-05-12T04:41:48.522Z,11.02
2023-05-12T04:44:15.663Z,12.30
2023-05-12T04:46:43.431Z,10.57
2023-05-12T04:49:10.993Z,11.02
2023-05-12T04:51:42.312Z,12.43
2023-05-12T04:54:12.339Z,13.57
2023-05-12T04:56:39.221Z,12.20
2023-05-12T04:59:06.652Z,11.63
2023-05-12T05:01:33.552Z,12.82
2023-05-12T05:04:00.605Z,12.77
2023-05-12T05:06:28.140Z,13.63
2023-05-12T05:08:55.982Z,13.43
2023-05-12T05:11:23.800Z,14.25
2023-05-12T05:13:51.081Z,12.25
2023-05-12T05:16:18.036Z,14.82
2023-05-12T05:18:47.915Z,14.55
2023-05-12T05:21:15.162Z,16.90
2023-05-12T05:23:42.796Z,14.20
2023-05-12T05:26:09.713Z,14.35
2023-05-12T05:28:37.350Z,14.10
2023-05-12T05:31:04.455Z,17.23
2023-05-12T05:33:32.017Z,14.65
2023-05-12T05:35:59.526Z,14.35
2023-05-12T05:38:26.366Z,14.90
2023-05-12T05:40:54.475Z,15.13
2023-05-12T05:43:21.553Z,13.27
2023-05-12T05:45:50.006Z,14.68
2023-05-12T05:48:17.780Z,16.13
2023-05-12T05:50:45.013Z,16.08
2023-05-12T05:53:11.787Z,16.23
2023-05-12T05:55:38.619Z,15.73
2023-05-12T05:58:05.687Z,16.83
2023-05-12T06:00:32.534Z,14.10
2023-05-12T06:02:59.409Z,17.17
2023-05-12T06:05:26.415Z,15.25
2023-05-12T06:07:53.257Z,17.35
2023-05-12T06:10:20.052Z,16.33
2023-05-12T06:12:47.397Z,16.02
2023-05-12T06:15:14.275Z,14.95
2023-05-12T06:17:42.152Z,17.05
2023-05-12T06:20:09.950Z,14.88
2023-05-12T06:22:36.754Z,15.23
2023-05-12T06:25:03.930Z,15.60
2023-05-12T06:27:30.943Z,16.05
2023-05-12T06:29:57.842Z,16.40
2023-05-12T06:32:24.895Z,15.57
2023-05-12T06:34:51.856Z,15.43
2023-05-12T06:37:18.720Z,16.48
2023-05-12T06:39:45.491Z,14.95
2023-05-12T06:42:12.845Z,16.75
2023-05-12T06:44:41.864Z,17.90
2023-05-12T06:47:09.480Z,13.98
2023-05-12T06:49:37.368Z,14.13
2023-05-12T06:52:05.884Z,14.52
2023-05-12T06:54:33.108Z,17.30
2023-05-12T06:57:00.050Z,13.48
2023-05-12T06:59:27.020Z,14.02
2023-05-12T07:01:54.043Z,14.77
2023-05-12T07:04:21.660Z,15.02
2023-05-12T07:06:48.633Z,13.70
2023-05-12T07:09:15.503Z,14.65
2023-05-12T07:11:42.312Z,14.82
2023-05-12T07:14:09.164Z,14.75
2023-05-12T07:16:36.406Z,15.30
2023-05-12T07:19:03.356Z,16.02
2023-05-12T07:21:30.671Z,15.25
2023-05-12T07:23:57.452Z,15.00
